Huvudsida
METAR-TAF:

METAR-TAF

Flygplatser :

Larnacas internationella flygplats

Larnaca, Cypern

latitud: 34-53N, longitud: 033-38E, höjd: 2 m

Aktuellt väderrapport

Denna rapport gjordes för 21 minuter sedan, klockan 20:30 UTC
Vind 6 kt från nord/nordväst
Temperatur 13°C
Fuktighet 54%
Tryck 1022 hPa
Sikt 10 km eller mer
Spridda moln på en höjd av 5000 ft

METAR: LCLK 162030Z 33006KT 9999 SCT050 13/04 Q1022 NOSIG

Tid: 22:51 (20:51 UTC)

Väderprognos

Denna rapport gjordes för 3 timmar och 21 minuter sedan, klockan 17:30 UTC
Prognos gäller från 16 kl. 18 UTC till 17 kl. 18 UTC
Vind 7 kt från nord/nordväst
Sikt 10 km eller mer
Få moln på en höjd av 2500 ft
Blir
från 17 kl. 06 UTC till 17 kl. 10 UTC
Vind 12 kt från ost

TAF: LCLK 161730Z 1618/1718 33007KT 9999 FEW025 BECMG 1706/1710 09012KT

Aktuella väderrapporter och prognoser från 4000 flygplatser (METAR- och TAF-rapporter).

De tillgängliga stationerna syns som gula och röda prickar på kartan.

För musen över prickarna för att se namnen på stationerna.

Klicka sedan för att få väderrapporter och prognoser.

För att ändra kartan: Klicka på de gröna knapparna med ett svart kors på för att zooma in; den gröna knappen med ett streck på för att zooma ut; eller på de gröna pilarna för angränsande kartor.


METAR-TAF: